Terminal Aerodrome Forecast
Issued by NWS

Home | Current Version | Previous Version | Text Only | Print | Product List | Glossary On
Versions: 1 2 3 4 5 6 7 8 9 10 11 12 13 14 15 16 17 18 19 20
000
FTUS46 KSGX 260500 AAA
TAFONT
TAF AMD
KONT 260549Z 2606/2712 VRB06KT P6SM BKN120
     FM261700 06009KT P6SM VCSH BKN050 OVC070
     FM270000 VRB06KT 6SM -SHRA BKN040 OVC060
     FM270500 VRB05KT P6SM VCSH BKN040 OVC070=

USA.gov is the U.S. government's official web portal to all federal, state and local government web resources and services.